Terminal Aerodrome Forecast
Issued by NWS

Home | Current Version | Previous Version | Text Only | Print | Product List | Glossary Off
Versions: 1 2 3 4 5 6 7 8 9 10 11 12 13 14 15 16 17 18 19

000
FTUS43 KGRB 240305 AAA
TAFCWA
TAF AMD
KCWA 240305Z 2403/2424 34009G16KT P6SM BKN030
     FM240900 02005KT 6SM BR SCT035
     FM241000 03005KT 5SM BR SCT026
     FM241200 03005KT P6SM SCT017
     FM241400 06005KT P6SM SCT100
     FM242100 12004KT P6SM FEW060=

USA.gov is the U.S. government's official web portal to all federal, state and local government web resources and services.